createdAt,value
2024-01-16T00:00:07.978Z,94863.09
2024-01-16T00:01:10.975Z,94865.41
2024-01-16T00:02:12.973Z,94868.50
2024-01-16T00:03:14.924Z,94863.84
2024-01-16T00:04:17.794Z,94874.66
2024-01-16T00:05:19.755Z,94863.09
2024-01-16T00:06:24.072Z,94868.50
2024-01-16T00:07:26.693Z,94875.41
2024-01-16T00:08:29.638Z,94871.56
2024-01-16T00:09:34.156Z,94871.56
2024-01-16T00:10:37.106Z,94865.38
2024-01-16T00:11:41.335Z,94871.56
2024-01-16T00:12:44.368Z,94868.88
2024-01-16T00:13:46.259Z,94873.09
2024-01-16T00:14:49.380Z,94871.16
2024-01-16T00:15:51.266Z,94878.50
2024-01-16T00:16:53.289Z,94874.66
2024-01-16T00:17:56.362Z,94876.56
2024-01-16T00:18:58.518Z,94876.56
2024-01-16T00:20:02.315Z,94876.56
2024-01-16T00:21:04.763Z,94882.38
2024-01-16T00:22:08.967Z,94876.97
2024-01-16T00:23:11.377Z,94882.38
2024-01-16T00:24:14.525Z,94880.81
2024-01-16T00:25:16.619Z,94881.63
2024-01-16T00:26:23.242Z,94875.84
2024-01-16T00:27:25.176Z,94879.28
2024-01-16T00:28:28.880Z,94879.28
2024-01-16T00:29:32.001Z,94882.38
2024-01-16T00:30:35.400Z,94887.78
2024-01-16T00:31:37.256Z,94883.13
2024-01-16T00:32:41.470Z,94880.84
2024-01-16T00:33:43.901Z,94892.41
2024-01-16T00:34:46.938Z,94882.75
2024-01-16T00:35:48.852Z,94888.19
2024-01-16T00:36:51.765Z,94884.69
2024-01-16T00:37:54.986Z,94890.88
2024-01-16T00:38:57.936Z,94892.03
2024-01-16T00:39:59.863Z,94892.81
2024-01-16T00:41:02.721Z,94884.69
2024-01-16T00:42:05.225Z,94893.22
2024-01-16T00:43:08.197Z,94895.53
2024-01-16T00:44:10.097Z,94900.16
2024-01-16T00:45:13.018Z,94894.78
2024-01-16T00:46:15.104Z,94900.56
2024-01-16T00:47:18.110Z,94901.31
2024-01-16T00:48:21.966Z,94900.97
2024-01-16T00:49:24.848Z,94904.81
2024-01-16T00:50:27.841Z,94905.97
2024-01-16T00:51:30.807Z,94907.16
2024-01-16T00:52:32.787Z,94910.22
2024-01-16T00:53:42.218Z,94914.06
2024-01-16T00:54:44.680Z,94916.78
2024-01-16T00:55:47.548Z,94914.84
2024-01-16T00:56:49.572Z,94911.00
2024-01-16T00:57:53.859Z,94913.69
2024-01-16T00:58:55.722Z,94916.41
2024-01-16T00:59:58.687Z,94919.09
2024-01-16T01:01:00.721Z,94911.00
2024-01-16T01:02:04.716Z,94916.41
2024-01-16T01:03:06.664Z,94917.16
2024-01-16T01:04:09.578Z,94917.16
2024-01-16T01:05:11.769Z,94920.63
2024-01-16T01:06:14.876Z,94927.97
2024-01-16T01:07:16.899Z,94921.78
2024-01-16T01:08:18.998Z,94926.03
2024-01-16T01:09:23.346Z,94923.31
2024-01-16T01:10:25.546Z,94928.72
2024-01-16T01:11:28.734Z,94923.72
2024-01-16T01:12:30.647Z,94927.19
2024-01-16T01:13:33.569Z,94928.72
2024-01-16T01:14:35.619Z,94928.72
2024-01-16T01:15:38.591Z,94928.72
2024-01-16T01:16:40.565Z,94927.19
2024-01-16T01:17:43.765Z,94933.75
2024-01-16T01:18:45.810Z,94929.50
2024-01-16T01:19:48.867Z,94936.44
2024-01-16T01:20:50.856Z,94934.91
2024-01-16T01:21:52.700Z,94934.16
2024-01-16T01:22:55.525Z,94945.72
2024-01-16T01:23:57.410Z,94949.56
2024-01-16T01:25:01.757Z,94944.16
2024-01-16T01:26:04.941Z,94943.78
2024-01-16T01:27:08.042Z,94946.84
2024-01-16T01:28:09.955Z,94948.78
2024-01-16T01:29:12.970Z,94953.06
2024-01-16T01:30:15.442Z,94952.25
2024-01-16T01:31:18.378Z,94954.19
2024-01-16T01:32:20.435Z,94957.66
2024-01-16T01:33:23.488Z,94954.59
2024-01-16T01:34:25.521Z,94956.91
2024-01-16T01:35:28.490Z,94953.81
2024-01-16T01:36:31.418Z,94962.69
2024-01-16T01:37:33.443Z,94960.75
2024-01-16T01:38:36.505Z,94965.00
2024-01-16T01:39:38.410Z,94963.84
2024-01-16T01:40:44.645Z,94970.41
2024-01-16T01:41:46.602Z,94976.97
2024-01-16T01:42:49.619Z,94968.84
2024-01-16T01:43:51.452Z,94964.22
2024-01-16T01:44:53.372Z,94973.13
2024-01-16T01:46:10.697Z,94974.25
2024-01-16T01:47:12.912Z,94970.41
2024-01-16T01:48:16.130Z,94978.09
2024-01-16T01:49:19.055Z,94976.19
2024-01-16T01:50:21.926Z,94983.13
2024-01-16T01:51:24.668Z,94978.50
2024-01-16T01:52:26.536Z,94981.97
2024-01-16T01:53:30.664Z,94982.75
2024-01-16T01:54:34.677Z,94984.31
2024-01-16T01:55:38.381Z,94979.66
2024-01-16T01:56:45.250Z,94983.13
2024-01-16T01:57:48.206Z,94976.56
2024-01-16T01:58:54.833Z,94985.44
2024-01-16T01:59:57.134Z,94988.16
2024-01-16T02:01:05.924Z,94988.16
2024-01-16T02:02:08.044Z,94979.66
2024-01-16T02:03:11.017Z,94985.81
2024-01-16T02:04:15.938Z,94986.59
2024-01-16T02:05:19.502Z,94987.34
2024-01-16T02:06:21.824Z,94990.84
2024-01-16T02:07:25.243Z,94991.63
2024-01-16T02:08:27.439Z,94997.00
2024-01-16T02:09:30.564Z,94995.84
2024-01-16T02:10:33.029Z,94989.69
2024-01-16T02:11:35.215Z,94995.84
2024-01-16T02:12:39.573Z,95001.25
2024-01-16T02:13:42.857Z,94998.16
2024-01-16T02:14:45.894Z,95003.19
2024-01-16T02:15:47.854Z,95013.97
2024-01-16T02:16:51.060Z,95012.03
2024-01-16T02:17:53.016Z,95012.03
2024-01-16T02:18:56.460Z,95005.13
2024-01-16T02:19:58.402Z,95010.50
2024-01-16T02:21:03.344Z,95006.25
2024-01-16T02:22:08.582Z,95009.75
2024-01-16T02:23:13.256Z,94996.63
2024-01-16T02:24:17.801Z,95002.78
2024-01-16T02:25:20.656Z,94996.63
2024-01-16T02:26:22.998Z,94997.38
2024-01-16T02:27:24.967Z,94998.16
2024-01-16T02:28:27.846Z,94995.88
2024-01-16T02:29:30.282Z,95002.03
2024-01-16T02:30:33.242Z,94994.31
2024-01-16T02:31:35.388Z,95004.34
2024-01-16T02:32:39.262Z,95006.28
2024-01-16T02:33:41.402Z,95003.56
2024-01-16T02:34:44.644Z,95013.25
2024-01-16T02:35:46.760Z,95009.75
2024-01-16T02:36:49.744Z,95009.75
2024-01-16T02:37:51.562Z,95006.66
2024-01-16T02:38:54.513Z,95012.47
2024-01-16T02:39:57.903Z,95017.09
2024-01-16T02:40:59.847Z,95008.59
2024-01-16T02:42:02.991Z,95007.44
2024-01-16T02:43:06.549Z,95008.97
2024-01-16T02:44:08.584Z,95008.59
2024-01-16T02:45:11.774Z,95012.81
2024-01-16T02:46:14.049Z,95005.13
2024-01-16T02:47:17.034Z,95011.28
2024-01-16T02:48:19.097Z,95009.00
2024-01-16T02:49:22.393Z,95001.28
2024-01-16T02:50:24.507Z,95000.47
2024-01-16T02:51:27.405Z,95007.44
2024-01-16T02:52:29.420Z,95005.13
2024-01-16T02:53:32.500Z,95005.88
2024-01-16T02:54:34.347Z,95012.06
2024-01-16T02:55:38.549Z,95011.31
2024-01-16T02:56:40.495Z,95005.13
2024-01-16T02:57:43.372Z,95004.34
2024-01-16T02:58:45.520Z,95006.69
2024-01-16T02:59:49.131Z,95002.44
2024-01-16T03:00:51.325Z,95005.50
2024-01-16T03:01:54.227Z,95000.47
2024-01-16T03:02:56.256Z,95005.88
2024-01-16T03:03:59.137Z,95002.03
2024-01-16T03:05:01.006Z,95002.81
2024-01-16T03:06:04.075Z,95007.81
2024-01-16T03:07:06.273Z,95009.34
2024-01-16T03:08:10.126Z,95009.72
2024-01-16T03:09:13.306Z,95008.59
2024-01-16T03:10:15.229Z,95003.97
2024-01-16T03:11:19.525Z,95005.13
2024-01-16T03:12:21.406Z,95010.91
2024-01-16T03:13:24.268Z,95018.25
2024-01-16T03:14:28.355Z,95018.25
2024-01-16T03:15:31.990Z,95016.31
2024-01-16T03:16:33.916Z,95017.47
2024-01-16T03:17:36.920Z,95011.66
2024-01-16T03:18:38.928Z,95012.06
2024-01-16T03:19:42.341Z,95019.00
2024-01-16T03:20:44.397Z,95011.66
2024-01-16T03:21:47.385Z,95022.88
2024-01-16T03:22:49.942Z,95018.25
2024-01-16T03:23:52.084Z,95017.47
2024-01-16T03:24:54.970Z,95025.94
2024-01-16T03:25:56.830Z,95016.31
2024-01-16T03:27:01.064Z,95018.25
2024-01-16T03:28:02.882Z,95026.34
2024-01-16T03:29:05.843Z,95024.78
2024-01-16T03:30:09.742Z,95022.06
2024-01-16T03:31:15.189Z,95029.03
2024-01-16T03:32:17.228Z,95014.75
2024-01-16T03:33:20.441Z,95024.38
2024-01-16T03:34:22.588Z,95013.59
2024-01-16T03:35:25.439Z,95019.00
2024-01-16T03:36:27.392Z,95024.38
2024-01-16T03:37:30.258Z,95029.78
2024-01-16T03:38:32.186Z,95024.38
2024-01-16T03:39:34.085Z,95027.09
2024-01-16T03:40:36.957Z,95024.38
2024-01-16T03:41:38.900Z,95022.47
2024-01-16T03:42:43.149Z,95024.81
2024-01-16T03:43:45.451Z,95021.34
2024-01-16T03:44:50.929Z,95018.25
2024-01-16T03:45:52.751Z,95025.19
2024-01-16T03:46:56.058Z,95022.88
2024-01-16T03:47:58.141Z,95032.91
2024-01-16T03:49:01.314Z,95016.69
2024-01-16T03:50:03.392Z,95021.34
2024-01-16T03:51:07.806Z,95016.69
2024-01-16T03:52:09.806Z,95020.16
2024-01-16T03:53:12.704Z,95023.66
2024-01-16T03:54:14.714Z,95020.56
2024-01-16T03:55:17.925Z,95012.84
2024-01-16T03:56:19.845Z,95018.63
2024-01-16T03:57:22.974Z,95014.00
2024-01-16T03:58:26.283Z,95017.44
2024-01-16T03:59:29.325Z,95009.75
2024-01-16T04:00:31.451Z,95013.22
2024-01-16T04:01:34.902Z,95012.06
2024-01-16T04:02:38.699Z,95007.06
2024-01-16T04:03:41.734Z,95011.69
2024-01-16T04:04:43.644Z,95007.81
2024-01-16T04:05:46.566Z,95010.53
2024-01-16T04:06:48.479Z,94999.72
2024-01-16T04:07:51.359Z,95004.38
2024-01-16T04:08:53.352Z,95005.13
2024-01-16T04:09:56.436Z,95005.88
2024-01-16T04:10:58.546Z,95003.59
2024-01-16T04:12:01.535Z,95005.88
2024-01-16T04:13:04.251Z,95006.28
2024-01-16T04:14:07.920Z,95012.84
2024-01-16T04:15:11.593Z,95008.97
2024-01-16T04:16:13.810Z,95013.25
2024-01-16T04:17:16.797Z,95017.06
2024-01-16T04:18:18.793Z,95014.00
2024-01-16T04:19:21.834Z,95015.94
2024-01-16T04:20:23.974Z,95021.34
2024-01-16T04:21:26.986Z,95018.63
2024-01-16T04:22:28.881Z,95022.09
2024-01-16T04:23:31.778Z,95025.94
2024-01-16T04:24:33.882Z,95025.19
2024-01-16T04:25:36.736Z,95022.47
2024-01-16T04:26:39.052Z,95024.38
2024-01-16T04:27:42.010Z,95022.88
2024-01-16T04:28:44.237Z,95029.78
2024-01-16T04:29:47.528Z,95030.19
2024-01-16T04:30:50.466Z,95026.72
2024-01-16T04:31:52.379Z,95032.13
2024-01-16T04:32:54.436Z,95035.59
2024-01-16T04:33:57.484Z,95030.56
2024-01-16T04:34:59.514Z,95029.03
2024-01-16T04:36:02.562Z,95032.50
2024-01-16T04:37:05.606Z,95025.56
2024-01-16T04:38:08.875Z,95029.03
2024-01-16T04:39:11.990Z,95022.09
2024-01-16T04:40:14.053Z,95028.66
2024-01-16T04:41:20.168Z,95032.13
2024-01-16T04:42:22.217Z,95030.19
2024-01-16T04:43:25.239Z,95029.03
2024-01-16T04:44:27.163Z,95023.63
2024-01-16T04:45:31.426Z,95023.63
2024-01-16T04:46:33.338Z,95018.22
2024-01-16T04:47:36.269Z,95020.56
2024-01-16T04:48:38.345Z,95019.00
2024-01-16T04:49:42.449Z,95012.06
2024-01-16T04:50:44.496Z,95017.47
2024-01-16T04:51:48.363Z,95017.47
2024-01-16T04:52:53.070Z,95020.16
2024-01-16T04:53:57.256Z,95011.31
2024-01-16T04:54:59.144Z,95017.47
2024-01-16T04:56:02.203Z,95014.78
2024-01-16T04:57:04.237Z,95008.63
2024-01-16T04:58:07.234Z,95012.44
2024-01-16T04:59:09.128Z,95016.72
2024-01-16T05:00:13.738Z,95014.38
2024-01-16T05:01:16.983Z,95013.22
2024-01-16T05:02:20.013Z,95024.00
2024-01-16T05:03:21.908Z,95015.91
2024-01-16T05:04:24.825Z,95018.63
2024-01-16T05:05:29.923Z,95010.50
2024-01-16T05:06:33.349Z,95009.75
2024-01-16T05:07:36.796Z,95005.91
2024-01-16T05:08:39.724Z,95007.06
2024-01-16T05:09:41.731Z,95002.81
2024-01-16T05:10:45.731Z,95008.59
2024-01-16T05:11:47.948Z,95008.59
2024-01-16T05:12:50.815Z,95008.22
2024-01-16T05:13:58.526Z,94995.09
2024-01-16T05:15:01.406Z,94995.09
2024-01-16T05:16:06.807Z,94993.16
2024-01-16T05:17:11.695Z,94993.97
2024-01-16T05:18:13.864Z,94996.66
2024-01-16T05:19:17.329Z,94994.72
2024-01-16T05:20:19.331Z,94998.19
2024-01-16T05:21:22.454Z,94993.97
2024-01-16T05:22:24.376Z,94989.31
2024-01-16T05:23:27.278Z,94997.44
2024-01-16T05:24:29.220Z,94998.19
2024-01-16T05:25:32.212Z,94996.66
2024-01-16T05:26:34.122Z,94993.56
2024-01-16T05:27:37.018Z,94993.56
2024-01-16T05:28:39.873Z,94997.44
2024-01-16T05:29:44.650Z,94992.78
2024-01-16T05:30:46.923Z,94997.81
2024-01-16T05:31:49.899Z,94999.72
2024-01-16T05:32:53.744Z,95000.50
2024-01-16T05:33:55.756Z,94998.19
2024-01-16T05:34:58.970Z,94998.97
2024-01-16T05:36:00.996Z,94992.03
2024-01-16T05:37:04.053Z,95002.06
2024-01-16T05:38:06.505Z,94996.25
2024-01-16T05:39:09.829Z,95004.75
2024-01-16T05:40:12.394Z,95002.06
2024-01-16T05:41:17.984Z,95002.41
2024-01-16T05:42:19.886Z,94998.19
2024-01-16T05:43:22.768Z,94991.25
2024-01-16T05:44:24.690Z,94991.25
2024-01-16T05:45:27.651Z,94985.47
2024-01-16T05:46:30.483Z,94992.44
2024-01-16T05:47:33.578Z,94988.94
2024-01-16T05:48:36.922Z,94995.88
2024-01-16T05:49:40.390Z,94991.25
2024-01-16T05:50:43.251Z,94987.78
2024-01-16T05:51:46.134Z,94989.72
2024-01-16T05:52:48.067Z,94988.94
2024-01-16T05:53:51.041Z,94994.31
2024-01-16T05:54:53.178Z,94989.72
2024-01-16T05:55:56.139Z,94984.31
2024-01-16T05:56:58.062Z,94987.78
2024-01-16T05:58:01.495Z,94995.88
2024-01-16T05:59:03.364Z,94990.50
2024-01-16T06:00:07.419Z,94990.50
2024-01-16T06:01:09.376Z,94988.94
2024-01-16T06:02:12.926Z,94988.94
2024-01-16T06:03:14.828Z,94984.69
2024-01-16T06:04:19.368Z,94988.94
2024-01-16T06:05:21.409Z,94980.06
2024-01-16T06:06:24.405Z,94982.38
2024-01-16T06:07:26.898Z,94982.78
2024-01-16T06:08:30.150Z,94992.03
2024-01-16T06:09:33.367Z,94989.31
2024-01-16T06:10:35.279Z,94985.09
2024-01-16T06:11:39.417Z,94993.19
2024-01-16T06:12:41.687Z,94988.19
2024-01-16T06:13:43.559Z,94983.16
2024-01-16T06:14:46.518Z,94989.72
2024-01-16T06:15:48.376Z,94977.38
2024-01-16T06:16:52.015Z,94985.09
2024-01-16T06:17:54.036Z,94990.50
2024-01-16T06:18:57.121Z,94983.53
2024-01-16T06:20:00.533Z,94983.16
2024-01-16T06:21:03.630Z,94978.94
2024-01-16T06:22:06.099Z,94977.38
2024-01-16T06:23:10.279Z,94978.53
2024-01-16T06:24:14.406Z,94982.00
2024-01-16T06:25:17.331Z,94976.22
2024-01-16T06:26:19.431Z,94982.03
2024-01-16T06:27:22.330Z,94982.78
2024-01-16T06:28:24.258Z,94976.63
2024-01-16T06:29:32.104Z,94979.31
2024-01-16T06:30:37.555Z,94976.63
2024-01-16T06:31:40.605Z,94972.75
2024-01-16T06:32:42.609Z,94975.06
2024-01-16T06:33:44.762Z,94975.06
2024-01-16T06:34:47.801Z,94978.53
2024-01-16T06:35:54.132Z,94974.31
2024-01-16T06:36:57.465Z,94968.16
2024-01-16T06:37:59.541Z,94971.22
2024-01-16T06:39:02.530Z,94975.84
2024-01-16T06:40:05.446Z,94974.28
2024-01-16T06:41:08.974Z,94977.41
2024-01-16T06:42:11.664Z,94982.78
2024-01-16T06:43:16.619Z,94985.88
2024-01-16T06:44:19.702Z,94989.72
2024-01-16T06:45:22.679Z,94988.94
2024-01-16T06:46:26.505Z,94986.63
2024-01-16T06:47:28.583Z,94991.66
2024-01-16T06:48:31.683Z,94989.72
2024-01-16T06:49:33.821Z,94993.19
2024-01-16T06:50:35.971Z,94984.69
2024-01-16T06:51:40.182Z,94994.34
2024-01-16T06:52:42.102Z,94982.78
2024-01-16T06:53:45.063Z,94988.94
2024-01-16T06:54:47.090Z,94985.09
2024-01-16T06:55:50.106Z,94990.47
2024-01-16T06:56:52.326Z,94989.72
2024-01-16T06:57:55.334Z,94988.53
2024-01-16T06:58:57.339Z,94994.34
2024-01-16T07:00:00.411Z,94994.34
2024-01-16T07:01:02.683Z,94995.09
2024-01-16T07:02:05.773Z,94988.94
2024-01-16T07:03:07.722Z,94992.78
2024-01-16T07:04:10.677Z,94982.78
2024-01-16T07:05:13.059Z,94988.94
2024-01-16T07:06:16.182Z,94988.94
2024-01-16T07:07:19.480Z,94993.56
2024-01-16T07:08:21.817Z,94981.22
2024-01-16T07:09:24.734Z,94986.63
2024-01-16T07:10:26.597Z,94981.22
2024-01-16T07:11:28.706Z,94991.25
2024-01-16T07:12:31.538Z,94986.63
2024-01-16T07:13:33.435Z,94982.41
2024-01-16T07:14:37.547Z,94987.78
2024-01-16T07:15:40.444Z,94991.25
2024-01-16T07:16:44.360Z,94994.72
2024-01-16T07:17:46.409Z,94997.44
2024-01-16T07:18:49.422Z,94995.88
2024-01-16T07:19:51.519Z,94990.47
2024-01-16T07:20:54.524Z,94999.75
2024-01-16T07:21:56.496Z,94994.34
2024-01-16T07:23:01.217Z,94993.94
2024-01-16T07:24:03.242Z,94995.13
2024-01-16T07:25:06.674Z,95005.91
2024-01-16T07:26:08.666Z,95008.97
2024-01-16T07:27:11.571Z,95002.81
2024-01-16T07:28:13.825Z,95013.63
2024-01-16T07:29:16.741Z,95012.81
2024-01-16T07:30:18.602Z,95010.53
2024-01-16T07:31:21.545Z,95010.53
2024-01-16T07:32:23.506Z,95014.38
2024-01-16T07:33:26.657Z,95015.53
2024-01-16T07:34:28.826Z,95008.19
2024-01-16T07:35:32.057Z,95018.63
2024-01-16T07:36:33.947Z,95019.38
2024-01-16T07:37:35.898Z,95014.75
2024-01-16T07:38:40.379Z,95008.22
2024-01-16T07:39:42.434Z,95007.44
2024-01-16T07:40:45.460Z,95008.97
2024-01-16T07:41:47.521Z,95009.75
2024-01-16T07:42:50.476Z,95019.75
2024-01-16T07:43:52.510Z,95007.44
2024-01-16T07:44:56.552Z,95019.75
2024-01-16T07:45:58.681Z,95011.66
2024-01-16T07:47:01.636Z,95014.38
2024-01-16T07:48:04.655Z,95016.69
2024-01-16T07:49:08.000Z,95014.75
2024-01-16T07:50:11.532Z,95007.06
2024-01-16T07:51:14.508Z,95009.75
2024-01-16T07:52:16.556Z,95012.84
2024-01-16T07:53:19.522Z,95002.03
2024-01-16T07:54:22.850Z,95000.50
2024-01-16T07:55:25.483Z,95012.06
2024-01-16T07:56:28.662Z,95008.22
2024-01-16T07:57:30.574Z,95009.75
2024-01-16T07:58:33.488Z,95010.53
2024-01-16T07:59:35.383Z,95012.44
2024-01-16T08:00:38.424Z,95009.75
2024-01-16T08:01:40.320Z,95005.91
2024-01-16T08:02:43.323Z,95005.16
2024-01-16T08:03:45.243Z,95014.00
2024-01-16T08:04:48.101Z,95008.63
2024-01-16T08:05:50.104Z,95014.41
2024-01-16T08:06:54.473Z,95007.84
2024-01-16T08:07:56.388Z,95013.22
2024-01-16T08:08:59.388Z,95017.47
2024-01-16T08:10:02.831Z,95012.09
2024-01-16T08:11:05.715Z,95019.00
2024-01-16T08:12:08.566Z,95015.16
2024-01-16T08:13:11.454Z,95022.88
2024-01-16T08:14:13.443Z,95016.31
2024-01-16T08:15:16.438Z,95011.69
2024-01-16T08:16:20.454Z,95017.84
2024-01-16T08:17:23.371Z,95015.94
2024-01-16T08:18:25.952Z,95016.69
2024-01-16T08:19:29.422Z,95017.47
2024-01-16T08:20:31.544Z,95022.88
2024-01-16T08:21:34.452Z,95020.94
2024-01-16T08:22:36.390Z,95019.00
2024-01-16T08:23:39.758Z,95012.09
2024-01-16T08:24:41.608Z,95017.47
2024-01-16T08:25:45.889Z,95016.69
2024-01-16T08:26:47.830Z,95017.47
2024-01-16T08:27:51.951Z,95017.47
2024-01-16T08:28:53.894Z,95022.88
2024-01-16T08:29:57.203Z,95017.47
2024-01-16T08:31:00.036Z,95018.25
2024-01-16T08:32:03.008Z,95010.91
2024-01-16T08:33:05.500Z,95010.91
2024-01-16T08:34:09.045Z,95011.69
2024-01-16T08:35:11.361Z,95008.97
2024-01-16T08:36:14.723Z,95013.63
2024-01-16T08:37:16.660Z,95015.16
2024-01-16T08:38:18.562Z,95010.53
2024-01-16T08:39:21.691Z,95000.50
2024-01-16T08:40:23.520Z,95014.78
2024-01-16T08:41:27.755Z,95009.78
2024-01-16T08:42:29.686Z,95011.31
2024-01-16T08:43:32.636Z,95007.44
2024-01-16T08:44:34.535Z,95007.44
2024-01-16T08:45:37.393Z,95004.75
2024-01-16T08:46:39.250Z,95002.03
2024-01-16T08:47:42.233Z,95002.03
2024-01-16T08:48:54.303Z,94998.19
2024-01-16T08:49:57.322Z,94999.72
2024-01-16T08:51:02.447Z,94991.63
2024-01-16T08:52:06.346Z,95002.03
2024-01-16T08:53:08.437Z,94996.66
2024-01-16T08:54:11.931Z,94994.72
2024-01-16T08:55:13.819Z,94997.81
2024-01-16T08:56:18.706Z,94990.47
2024-01-16T08:57:24.484Z,94998.19
2024-01-16T08:58:28.065Z,94992.78
2024-01-16T08:59:30.139Z,94998.19
2024-01-16T09:00:34.493Z,94992.78
2024-01-16T09:01:36.512Z,94982.38
2024-01-16T09:02:39.552Z,94991.25
2024-01-16T09:03:44.456Z,94991.25
2024-01-16T09:04:46.677Z,94988.16
2024-01-16T09:05:49.767Z,94988.16
2024-01-16T09:06:51.943Z,94988.16
2024-01-16T09:07:53.930Z,94985.84
2024-01-16T09:08:56.904Z,94995.09
2024-01-16T09:09:58.907Z,94999.34
2024-01-16T09:11:01.316Z,94993.53
2024-01-16T09:12:04.720Z,94991.66
2024-01-16T09:13:08.352Z,94987.78
2024-01-16T09:14:11.319Z,94992.00
2024-01-16T09:15:13.278Z,94985.47
2024-01-16T09:16:16.212Z,94979.69
2024-01-16T09:17:18.137Z,94981.97
2024-01-16T09:18:21.441Z,94994.31
2024-01-16T09:19:23.715Z,94982.34
2024-01-16T09:20:26.742Z,94983.13
2024-01-16T09:21:29.529Z,94984.69
2024-01-16T09:22:31.450Z,94983.50
2024-01-16T09:23:34.641Z,94972.34
2024-01-16T09:24:36.657Z,94973.50
2024-01-16T09:25:38.605Z,94981.19
2024-01-16T09:26:41.650Z,94981.97
2024-01-16T09:27:43.722Z,94972.72
2024-01-16T09:28:48.009Z,94976.94
2024-01-16T09:29:50.472Z,94975.03
2024-01-16T09:30:53.515Z,94969.63
2024-01-16T09:31:55.418Z,94975.78
2024-01-16T09:32:58.364Z,94974.25
2024-01-16T09:34:00.458Z,94966.53
2024-01-16T09:35:07.510Z,94971.94
2024-01-16T09:36:10.261Z,94975.00
2024-01-16T09:37:15.822Z,94975.00
2024-01-16T09:38:17.855Z,94981.19
2024-01-16T09:39:32.684Z,94987.38
2024-01-16T09:40:36.453Z,94983.50
2024-01-16T09:41:40.587Z,94983.50
2024-01-16T09:42:42.480Z,94981.56
2024-01-16T09:43:48.302Z,94976.91
2024-01-16T09:44:51.090Z,94983.88
2024-01-16T09:45:56.234Z,94982.72
2024-01-16T09:47:00.469Z,94985.41
2024-01-16T09:48:05.316Z,94984.66
2024-01-16T09:49:08.213Z,94980.00
2024-01-16T09:50:13.031Z,94982.72
2024-01-16T09:51:15.745Z,94978.09
2024-01-16T09:52:18.689Z,94974.59
2024-01-16T09:53:20.840Z,94980.41
2024-01-16T09:54:23.976Z,94981.56
2024-01-16T09:55:26.118Z,94979.63
2024-01-16T09:56:31.093Z,94972.28
2024-01-16T09:57:33.794Z,94970.34
2024-01-16T09:58:39.329Z,94975.00
2024-01-16T09:59:44.057Z,94973.84
2024-01-16T10:00:49.584Z,94971.16
2024-01-16T10:01:55.562Z,94969.59
2024-01-16T10:03:00.157Z,94965.75
2024-01-16T10:04:02.489Z,94969.97
2024-01-16T10:05:04.836Z,94959.16
2024-01-16T10:06:09.229Z,94969.59
2024-01-16T10:07:13.430Z,94959.56
2024-01-16T10:08:16.368Z,94960.31
2024-01-16T10:09:18.280Z,94954.91
2024-01-16T10:10:30.286Z,94961.09
2024-01-16T10:11:38.140Z,94956.47
2024-01-16T10:12:41.784Z,94964.16
2024-01-16T10:13:45.270Z,94964.16
2024-01-16T10:14:52.209Z,94960.31
2024-01-16T10:15:56.256Z,94967.25
2024-01-16T10:17:07.416Z,94963.78
2024-01-16T10:18:23.161Z,94961.09
2024-01-16T10:19:35.117Z,94963.41
2024-01-16T10:20:45.856Z,94960.69
2024-01-16T10:21:47.857Z,94964.16
2024-01-16T10:22:55.399Z,94962.22
2024-01-16T10:24:11.723Z,94961.84
2024-01-16T10:25:18.237Z,94965.69
2024-01-16T10:26:22.542Z,94966.50
2024-01-16T10:27:28.005Z,94967.25
2024-01-16T10:28:31.095Z,94962.63
2024-01-16T10:29:43.460Z,94957.22
2024-01-16T10:31:03.781Z,94953.34
2024-01-16T10:32:11.066Z,94959.53
2024-01-16T10:33:17.928Z,94950.63
2024-01-16T10:34:22.668Z,94949.50
2024-01-16T10:35:24.806Z,94946.78
2024-01-16T10:36:27.819Z,94950.25
2024-01-16T10:37:29.774Z,94940.22
2024-01-16T10:38:32.750Z,94941.78
2024-01-16T10:39:41.227Z,94946.41
2024-01-16T10:40:46.993Z,94939.84
2024-01-16T10:41:56.557Z,94940.22
2024-01-16T10:43:00.991Z,94934.03
2024-01-16T10:44:08.101Z,94940.97
2024-01-16T10:45:19.616Z,94938.28
2024-01-16T10:46:25.100Z,94936.34
2024-01-16T10:47:27.157Z,94936.72
2024-01-16T10:48:30.619Z,94940.19
2024-01-16T10:49:40.861Z,94937.09
2024-01-16T10:50:49.881Z,94932.47
2024-01-16T10:51:53.264Z,94934.03
2024-01-16T10:52:55.965Z,94934.41
2024-01-16T10:54:01.285Z,94929.75
2024-01-16T10:55:06.144Z,94934.78
2024-01-16T10:56:12.245Z,94940.94
2024-01-16T10:57:14.645Z,94932.44
2024-01-16T10:58:20.346Z,94931.66
2024-01-16T10:59:27.112Z,94936.69
2024-01-16T11:00:33.082Z,94934.75
2024-01-16T11:01:37.065Z,94929.34
2024-01-16T11:02:44.434Z,94935.50
2024-01-16T11:03:49.943Z,94939.75
2024-01-16T11:04:55.324Z,94936.31
2024-01-16T11:05:59.890Z,94937.06
2024-01-16T11:07:05.529Z,94933.94
2024-01-16T11:08:10.926Z,94933.94
2024-01-16T11:09:16.197Z,94923.94
2024-01-16T11:10:19.340Z,94936.28
2024-01-16T11:11:22.726Z,94939.34
2024-01-16T11:12:27.237Z,94936.66
2024-01-16T11:13:30.629Z,94936.66
2024-01-16T11:14:33.245Z,94928.53
2024-01-16T11:15:38.156Z,94934.31
2024-01-16T11:16:42.386Z,94926.22
2024-01-16T11:17:46.730Z,94926.97
2024-01-16T11:18:48.816Z,94916.94
2024-01-16T11:20:07.309Z,94921.19
2024-01-16T11:21:18.385Z,94918.50
2024-01-16T11:22:22.226Z,94917.31
2024-01-16T11:23:25.864Z,94917.31
2024-01-16T11:24:27.901Z,94916.16
2024-01-16T11:25:33.811Z,94909.22
2024-01-16T11:26:38.067Z,94908.81
2024-01-16T11:27:42.516Z,94899.94
2024-01-16T11:28:44.347Z,94899.94
2024-01-16T11:29:52.188Z,94906.88
2024-01-16T11:30:54.321Z,94908.44
2024-01-16T11:32:13.387Z,94903.03
2024-01-16T11:33:43.487Z,94907.25
2024-01-16T11:34:56.574Z,94906.50
2024-01-16T11:35:58.958Z,94907.25
2024-01-16T11:37:03.629Z,94908.78
2024-01-16T11:38:07.533Z,94907.25
2024-01-16T11:39:12.534Z,94905.31
2024-01-16T11:40:29.210Z,94912.28
2024-01-16T11:41:50.527Z,94906.47
2024-01-16T11:42:55.823Z,94908.41
2024-01-16T11:43:57.702Z,94913.03
2024-01-16T11:44:59.833Z,94912.28
2024-01-16T11:46:03.296Z,94907.63
2024-01-16T11:47:06.937Z,94902.22
2024-01-16T11:48:13.561Z,94907.63
2024-01-16T11:49:20.361Z,94914.56
2024-01-16T11:50:32.455Z,94910.72
2024-01-16T11:51:42.406Z,94908.03
2024-01-16T11:52:46.574Z,94907.59
2024-01-16T11:53:48.683Z,94906.84
2024-01-16T11:54:52.364Z,94911.47
2024-01-16T11:56:12.865Z,94906.06
2024-01-16T11:57:48.306Z,94906.06
2024-01-16T11:59:02.494Z,94897.97
2024-01-16T12:00:13.924Z,94896.94
2024-01-16T12:01:20.766Z,94897.72
2024-01-16T12:02:34.294Z,94882.19
2024-01-16T12:03:36.403Z,94886.03
2024-01-16T12:04:39.341Z,94886.78
2024-01-16T12:05:41.432Z,94882.94
2024-01-16T12:06:44.744Z,94879.81
2024-01-16T12:07:50.245Z,94874.41
2024-01-16T12:08:53.437Z,94872.09
2024-01-16T12:10:00.386Z,94857.81
2024-01-16T12:11:03.450Z,94857.41
2024-01-16T12:12:06.633Z,94861.66
2024-01-16T12:13:10.443Z,94857.41
2024-01-16T12:14:13.122Z,94860.47
2024-01-16T12:15:18.308Z,94853.53
2024-01-16T12:16:20.337Z,94849.66
2024-01-16T12:17:23.380Z,94848.13
2024-01-16T12:18:34.083Z,94845.81
2024-01-16T12:19:45.431Z,94844.25
2024-01-16T12:20:47.577Z,94845.81
2024-01-16T12:21:51.759Z,94840.41
2024-01-16T12:22:55.315Z,94831.53
2024-01-16T12:24:08.214Z,94835.00
2024-01-16T12:25:13.908Z,94833.81
2024-01-16T12:26:22.435Z,94836.88
2024-01-16T12:27:24.434Z,94836.88